createdAt,value
2017-08-07T00:00:53.580Z,4.63
2017-08-07T00:03:21.013Z,4.47
2017-08-07T00:05:49.230Z,4.00
2017-08-07T00:08:16.640Z,3.80
2017-08-07T00:10:44.836Z,3.90
2017-08-07T00:13:21.850Z,4.37
2017-08-07T00:15:50.341Z,4.37
2017-08-07T00:18:17.758Z,3.87
2017-08-07T00:20:45.204Z,4.73
2017-08-07T00:23:12.632Z,4.60
2017-08-07T00:25:40.825Z,4.60
2017-08-07T00:28:08.265Z,4.30
2017-08-07T00:30:36.460Z,4.50
2017-08-07T00:33:03.913Z,4.57
2017-08-07T00:35:32.106Z,4.67
2017-08-07T00:37:59.532Z,5.23
2017-08-07T00:40:27.723Z,4.90
2017-08-07T00:42:55.157Z,4.90
2017-08-07T00:45:22.577Z,4.30
2017-08-07T00:47:49.998Z,4.50
2017-08-07T00:50:17.424Z,4.83
2017-08-07T00:52:44.857Z,4.37
2017-08-07T00:55:13.028Z,4.90
2017-08-07T00:57:40.490Z,5.40
2017-08-07T01:00:08.668Z,4.90
2017-08-07T01:02:36.851Z,4.77
2017-08-07T01:05:05.092Z,5.23
2017-08-07T01:07:32.545Z,5.43
2017-08-07T01:09:59.971Z,5.33
2017-08-07T01:12:27.396Z,5.20
2017-08-07T01:14:54.939Z,4.70
2017-08-07T01:17:23.130Z,5.83
2017-08-07T01:19:50.556Z,5.40
2017-08-07T01:22:17.980Z,6.20
2017-08-07T01:24:45.429Z,8.00
2017-08-07T01:27:12.857Z,6.23
2017-08-07T01:29:40.405Z,5.90
2017-08-07T01:32:07.833Z,6.47
2017-08-07T01:34:35.264Z,6.13
2017-08-07T01:37:02.690Z,6.30
2017-08-07T01:39:30.136Z,5.60
2017-08-07T01:41:57.564Z,6.27
2017-08-07T01:44:25.761Z,6.50
2017-08-07T01:46:53.218Z,5.87
2017-08-07T01:49:20.652Z,6.00
2017-08-07T01:51:48.849Z,6.53
2017-08-07T01:54:16.296Z,6.83
2017-08-07T01:56:44.492Z,7.13
2017-08-07T01:59:12.008Z,6.40
2017-08-07T02:01:39.461Z,6.10
2017-08-07T02:04:06.886Z,6.93
2017-08-07T02:06:34.315Z,6.83
2017-08-07T02:09:01.745Z,6.40
2017-08-07T02:11:29.368Z,6.93
2017-08-07T02:13:56.795Z,6.90
2017-08-07T02:16:24.254Z,6.77
2017-08-07T02:18:51.679Z,6.57
2017-08-07T02:21:19.096Z,6.60
2017-08-07T02:23:46.520Z,6.90
2017-08-07T02:26:13.945Z,7.50
2017-08-07T02:28:41.386Z,7.07
2017-08-07T02:31:09.583Z,7.70
2017-08-07T02:33:37.288Z,7.20
2017-08-07T02:36:04.825Z,7.10
2017-08-07T02:38:32.224Z,6.67
2017-08-07T02:41:00.424Z,7.10
2017-08-07T02:43:28.634Z,7.50
2017-08-07T02:45:56.078Z,8.17
2017-08-07T02:48:23.515Z,7.40
2017-08-07T02:50:50.929Z,7.67
2017-08-07T02:53:18.357Z,7.97
2017-08-07T02:55:45.784Z,7.37
2017-08-07T02:58:13.207Z,7.80
2017-08-07T03:00:40.673Z,7.87
2017-08-07T03:03:08.102Z,7.87
2017-08-07T03:05:35.545Z,8.20
2017-08-07T03:08:02.968Z,8.60
2017-08-07T03:10:30.388Z,8.10
2017-08-07T03:12:58.585Z,7.70
2017-08-07T03:15:26.008Z,8.00
2017-08-07T03:17:53.446Z,8.23
2017-08-07T03:20:20.872Z,8.20
2017-08-07T03:22:48.301Z,8.30
2017-08-07T03:25:15.729Z,8.80
2017-08-07T03:27:43.197Z,9.17
2017-08-07T03:30:11.380Z,8.87
2017-08-07T03:32:39.572Z,8.83
2017-08-07T03:35:06.999Z,8.27
2017-08-07T03:37:35.200Z,7.87
2017-08-07T03:40:02.656Z,8.37
2017-08-07T03:42:30.087Z,8.40
2017-08-07T03:44:58.289Z,8.60
2017-08-07T03:47:25.722Z,8.30
2017-08-07T03:49:53.948Z,8.90
2017-08-07T03:52:21.376Z,8.20
2017-08-07T03:54:48.809Z,8.47
2017-08-07T03:57:17.013Z,8.40
2017-08-07T03:59:44.450Z,8.77
2017-08-07T04:02:11.945Z,8.60
2017-08-07T04:04:39.396Z,8.70
2017-08-07T04:07:06.846Z,7.90
2017-08-07T04:09:34.264Z,9.10
2017-08-07T04:12:02.466Z,8.90
2017-08-07T04:14:29.896Z,9.03
2017-08-07T04:16:57.325Z,9.10
2017-08-07T04:19:24.751Z,8.47
2017-08-07T04:21:52.163Z,8.53
2017-08-07T04:24:20.368Z,8.90
2017-08-07T04:26:47.803Z,9.40
2017-08-07T04:29:15.248Z,8.47
2017-08-07T04:31:43.437Z,8.20
2017-08-07T04:34:10.860Z,8.50
2017-08-07T04:36:39.065Z,9.17
2017-08-07T04:39:06.524Z,7.80
2017-08-07T04:41:33.944Z,9.83
2017-08-07T04:44:02.153Z,10.03
2017-08-07T04:46:29.584Z,9.00
2017-08-07T04:48:57.775Z,8.10
2017-08-07T04:51:25.227Z,8.93
2017-08-07T04:53:52.691Z,9.00
2017-08-07T04:56:20.113Z,9.03
2017-08-07T05:01:22.228Z,9.00
2017-08-07T05:03:49.679Z,9.13
2017-08-07T05:06:17.103Z,9.10
2017-08-07T05:08:44.541Z,7.87
2017-08-07T05:11:12.008Z,7.70
2017-08-07T05:13:39.448Z,7.93
2017-08-07T05:16:06.869Z,7.70
2017-08-07T05:18:34.297Z,7.60
2017-08-07T05:21:02.525Z,6.80
2017-08-07T05:23:29.940Z,8.30
2017-08-07T05:25:57.369Z,8.00
2017-08-07T05:28:25.599Z,7.20
2017-08-07T05:30:53.013Z,6.97
2017-08-07T05:33:21.197Z,7.90
2017-08-07T05:35:48.626Z,7.00
2017-08-07T05:38:16.040Z,7.30
2017-08-07T05:40:43.472Z,7.53
2017-08-07T05:43:10.923Z,6.07
2017-08-07T05:45:38.347Z,6.70
2017-08-07T05:48:05.809Z,6.93
2017-08-07T05:50:33.237Z,6.80
2017-08-07T05:53:00.681Z,7.50
2017-08-07T05:55:28.098Z,7.20
2017-08-07T05:57:56.352Z,6.90
2017-08-07T06:00:23.784Z,7.60
2017-08-07T06:02:51.214Z,6.30
2017-08-07T06:05:18.724Z,6.50
2017-08-07T06:07:46.158Z,6.83
2017-08-07T06:10:13.590Z,6.13
2017-08-07T06:12:41.100Z,6.93
2017-08-07T06:15:09.276Z,7.00
2017-08-07T06:17:37.463Z,6.23
2017-08-07T06:20:04.901Z,5.27
2017-08-07T06:22:33.132Z,6.07
2017-08-07T06:25:00.597Z,6.07
2017-08-07T06:30:02.075Z,6.57
2017-08-07T06:32:29.506Z,6.87
2017-08-07T06:34:56.992Z,6.90
2017-08-07T06:37:24.413Z,6.40
2017-08-07T06:39:51.828Z,5.73
2017-08-07T06:42:19.261Z,6.63
2017-08-07T06:44:46.672Z,5.93
2017-08-07T06:47:14.100Z,6.07
2017-08-07T06:49:41.533Z,5.63
2017-08-07T06:52:09.753Z,5.83
2017-08-07T06:54:37.181Z,6.53
2017-08-07T06:57:05.428Z,5.47
2017-08-07T06:59:32.844Z,5.70
2017-08-07T07:02:00.295Z,5.27
2017-08-07T07:04:27.717Z,4.97
2017-08-07T07:06:55.932Z,6.13
2017-08-07T07:09:23.406Z,8.60
2017-08-07T07:11:50.831Z,9.23
2017-08-07T07:14:18.252Z,6.97
2017-08-07T07:16:46.475Z,4.90
2017-08-07T07:19:13.912Z,6.37
2017-08-07T07:21:41.345Z,4.73
2017-08-07T07:24:09.583Z,4.70
2017-08-07T07:26:37.071Z,4.53
2017-08-07T07:29:05.308Z,4.93
2017-08-07T07:31:32.954Z,4.63
2017-08-07T07:34:00.380Z,4.23
2017-08-07T07:36:27.822Z,4.30
2017-08-07T07:38:57.507Z,4.00
2017-08-07T07:41:24.930Z,4.10
2017-08-07T07:43:52.367Z,3.63
2017-08-07T07:46:19.805Z,4.10
2017-08-07T07:48:47.242Z,3.73
2017-08-07T07:51:14.877Z,3.47
2017-08-07T07:53:42.306Z,3.20
2017-08-07T07:56:09.721Z,3.43
2017-08-07T07:58:37.916Z,3.57
2017-08-07T08:01:16.112Z,4.38
2017-08-07T08:03:43.540Z,3.60
2017-08-07T08:06:10.976Z,3.60
2017-08-07T08:08:38.398Z,4.60
2017-08-07T08:11:05.884Z,5.00
2017-08-07T08:13:33.321Z,5.33
2017-08-07T08:16:00.746Z,3.60
2017-08-07T08:18:28.168Z,4.57
2017-08-07T08:20:55.603Z,3.70
2017-08-07T08:23:23.032Z,4.30
2017-08-07T08:25:50.446Z,2.97
2017-08-07T08:28:17.860Z,3.10
2017-08-07T08:30:45.288Z,3.50
2017-08-07T08:33:12.732Z,3.77
2017-08-07T08:35:40.956Z,3.60
2017-08-07T08:38:08.382Z,3.50
2017-08-07T08:40:35.810Z,3.10
2017-08-07T08:43:03.992Z,3.10
2017-08-07T08:45:31.415Z,2.80
2017-08-07T08:47:58.844Z,3.63
2017-08-07T08:50:26.272Z,3.50
2017-08-07T08:52:53.734Z,3.53
2017-08-07T08:55:21.144Z,5.80
2017-08-07T08:57:48.564Z,3.20
2017-08-07T09:00:15.992Z,3.27
2017-08-07T09:02:43.432Z,3.63
2017-08-07T09:05:10.845Z,3.03
2017-08-07T09:07:38.281Z,2.63
2017-08-07T09:10:05.740Z,3.60
2017-08-07T09:12:33.174Z,2.83
2017-08-07T09:15:00.592Z,2.93
2017-08-07T09:17:28.796Z,3.30
2017-08-07T09:19:56.250Z,3.40
2017-08-07T09:22:23.705Z,3.50
2017-08-07T09:24:51.916Z,3.23
2017-08-07T09:27:19.341Z,3.30
2017-08-07T09:29:46.772Z,2.77
2017-08-07T09:32:14.976Z,3.17
2017-08-07T09:34:42.396Z,3.23
2017-08-07T09:37:09.816Z,3.50
2017-08-07T09:39:37.245Z,3.17
2017-08-07T09:42:04.660Z,3.20
2017-08-07T09:44:32.868Z,2.83
2017-08-07T09:47:00.320Z,2.90
2017-08-07T09:49:27.750Z,2.87
2017-08-07T09:51:55.960Z,2.90
2017-08-07T09:54:23.383Z,3.10
2017-08-07T09:56:51.587Z,2.73
2017-08-07T09:59:19.003Z,2.63
2017-08-07T10:01:46.448Z,2.83
2017-08-07T10:04:13.881Z,3.90
2017-08-07T10:06:41.315Z,3.13
2017-08-07T10:09:08.796Z,2.80
2017-08-07T10:11:36.225Z,2.63
2017-08-07T10:14:03.637Z,2.47
2017-08-07T10:16:31.832Z,2.33
2017-08-07T10:19:00.029Z,2.17
2017-08-07T10:21:27.436Z,2.20
2017-08-07T10:23:54.856Z,2.33
2017-08-07T10:26:22.280Z,2.13
2017-08-07T10:28:49.713Z,2.20
2017-08-07T10:31:17.895Z,1.87
2017-08-07T10:33:46.087Z,2.30
2017-08-07T10:36:13.496Z,2.10
2017-08-07T10:38:40.930Z,1.83
2017-08-07T10:41:08.373Z,1.97
2017-08-07T10:43:35.792Z,2.10
2017-08-07T10:46:04.020Z,2.00
2017-08-07T10:48:31.445Z,2.60
2017-08-07T10:50:58.874Z,2.30
2017-08-07T10:53:26.288Z,1.90
2017-08-07T10:55:53.999Z,2.30
2017-08-07T10:58:22.171Z,1.90
2017-08-07T11:00:50.364Z,2.23
2017-08-07T11:03:17.842Z,1.93
2017-08-07T11:05:45.268Z,2.30
2017-08-07T11:08:12.685Z,2.40
2017-08-07T11:10:40.111Z,1.90
2017-08-07T11:13:07.529Z,2.00
2017-08-07T11:15:34.949Z,2.40
2017-08-07T11:18:02.465Z,2.10
2017-08-07T11:20:29.888Z,2.53
2017-08-07T11:22:58.068Z,2.53
2017-08-07T11:25:26.266Z,2.10
2017-08-07T11:27:53.684Z,2.50
2017-08-07T11:30:21.100Z,2.30
2017-08-07T11:32:48.515Z,1.83
2017-08-07T11:35:15.961Z,2.00
2017-08-07T11:37:44.149Z,2.00
2017-08-07T11:40:11.659Z,2.40
2017-08-07T11:42:39.102Z,1.90
2017-08-07T11:45:06.513Z,1.93
2017-08-07T11:47:34.010Z,2.43
2017-08-07T11:50:01.433Z,1.90
2017-08-07T11:52:28.844Z,1.93
2017-08-07T11:54:56.380Z,2.17
2017-08-07T11:57:23.808Z,2.30
2017-08-07T11:59:51.227Z,2.40
2017-08-07T12:02:19.408Z,2.27
2017-08-07T12:04:47.634Z,2.17
2017-08-07T12:07:15.050Z,2.23
2017-08-07T12:09:42.491Z,2.27
2017-08-07T12:12:10.740Z,2.37
2017-08-07T12:14:38.164Z,2.20
2017-08-07T12:17:05.672Z,2.40
2017-08-07T12:19:33.177Z,2.10
2017-08-07T12:22:00.630Z,2.00
2017-08-07T12:24:28.044Z,1.90
2017-08-07T12:26:56.229Z,2.50
2017-08-07T12:29:23.662Z,2.07
2017-08-07T12:31:51.908Z,2.53
2017-08-07T12:34:19.343Z,2.40
2017-08-07T12:36:46.804Z,2.40
2017-08-07T12:39:14.221Z,1.87
2017-08-07T12:41:42.416Z,2.40
2017-08-07T12:44:09.832Z,2.10
2017-08-07T12:46:37.257Z,2.40
2017-08-07T12:49:04.676Z,2.40
2017-08-07T12:51:32.162Z,1.90
2017-08-07T12:53:59.572Z,2.50
2017-08-07T12:56:27.785Z,2.33
2017-08-07T12:58:55.207Z,2.03
2017-08-07T13:01:23.417Z,1.90
2017-08-07T13:03:50.836Z,2.00
2017-08-07T13:06:18.256Z,1.60
2017-08-07T13:08:45.698Z,2.03
2017-08-07T13:11:13.116Z,1.93
2017-08-07T13:13:40.536Z,2.33
2017-08-07T13:16:07.956Z,2.20
2017-08-07T13:18:35.376Z,1.80
2017-08-07T13:21:02.840Z,1.90
2017-08-07T13:23:30.252Z,1.80
2017-08-07T13:25:57.680Z,2.10
2017-08-07T13:28:25.153Z,1.97
2017-08-07T13:30:52.567Z,2.17
2017-08-07T13:33:20.009Z,2.07
2017-08-07T13:35:47.425Z,2.00
2017-08-07T13:38:14.868Z,2.97
2017-08-07T13:40:42.312Z,2.43
2017-08-07T13:43:09.740Z,2.40
2017-08-07T13:45:37.164Z,2.23
2017-08-07T13:48:05.365Z,2.00
2017-08-07T13:50:32.788Z,2.50
2017-08-07T13:53:00.230Z,1.90
2017-08-07T13:55:27.655Z,3.10
2017-08-07T13:57:55.072Z,2.10
2017-08-07T14:00:23.258Z,2.23
2017-08-07T14:02:50.739Z,4.07
2017-08-07T14:05:18.161Z,2.93
2017-08-07T14:07:46.360Z,4.10
2017-08-07T14:10:13.778Z,2.20
2017-08-07T14:12:41.224Z,2.23
2017-08-07T14:15:08.648Z,1.60
2017-08-07T14:17:36.076Z,2.00
2017-08-07T14:20:03.522Z,1.83
2017-08-07T14:22:31.029Z,1.97
2017-08-07T14:24:58.445Z,2.20
2017-08-07T14:27:25.930Z,2.17
2017-08-07T14:29:53.383Z,1.90
2017-08-07T14:32:20.801Z,2.00
2017-08-07T14:34:48.222Z,1.80
2017-08-07T14:37:15.640Z,1.83
2017-08-07T14:39:43.058Z,2.03
2017-08-07T14:42:10.490Z,2.00
2017-08-07T14:44:37.893Z,2.10
2017-08-07T14:47:05.319Z,1.73
2017-08-07T14:49:32.729Z,2.03
2017-08-07T14:52:00.158Z,1.60
2017-08-07T14:54:27.581Z,1.60
2017-08-07T14:56:55.782Z,1.90
2017-08-07T14:59:23.202Z,2.30
2017-08-07T15:01:50.628Z,2.20
2017-08-07T15:04:18.120Z,2.30
2017-08-07T15:06:45.528Z,2.13
2017-08-07T15:09:12.940Z,1.63
2017-08-07T15:11:40.397Z,2.30
2017-08-07T15:14:08.710Z,2.30
2017-08-07T15:16:36.210Z,2.23
2017-08-07T15:19:03.637Z,1.90
2017-08-07T15:21:31.125Z,2.23
2017-08-07T15:23:58.593Z,1.70
2017-08-07T15:26:26.052Z,1.80
2017-08-07T15:28:53.470Z,2.17
2017-08-07T15:31:20.892Z,2.00
2017-08-07T15:33:48.409Z,2.07
2017-08-07T15:36:15.828Z,1.90
2017-08-07T15:38:44.024Z,1.80
2017-08-07T15:41:11.589Z,1.83
2017-08-07T15:43:39.016Z,2.13
2017-08-07T15:46:07.209Z,2.00
2017-08-07T15:48:34.633Z,2.17
2017-08-07T15:51:02.822Z,2.03
2017-08-07T15:53:30.254Z,2.40
2017-08-07T15:55:57.684Z,2.10
2017-08-07T15:58:25.096Z,2.47
2017-08-07T16:00:52.524Z,2.23
2017-08-07T16:03:20.033Z,2.00
2017-08-07T16:05:47.492Z,2.00
2017-08-07T16:08:14.921Z,2.30
2017-08-07T16:10:42.354Z,2.20
2017-08-07T16:13:09.788Z,2.27
2017-08-07T16:15:37.216Z,2.40
2017-08-07T16:18:04.642Z,2.10
2017-08-07T16:20:32.063Z,2.40
2017-08-07T16:22:59.497Z,2.17
2017-08-07T16:25:26.901Z,2.03
2017-08-07T16:27:55.084Z,2.83
2017-08-07T16:30:30.417Z,3.17
2017-08-07T16:32:58.580Z,2.80
2017-08-07T16:35:26.780Z,2.60
2017-08-07T16:37:54.252Z,2.87
2017-08-07T16:40:21.678Z,2.77
2017-08-07T16:42:49.088Z,3.03
2017-08-07T16:45:16.509Z,2.53
2017-08-07T16:47:43.933Z,3.37
2017-08-07T16:50:12.158Z,2.60
2017-08-07T16:52:39.588Z,3.20
2017-08-07T16:55:07.022Z,3.43
2017-08-07T16:57:34.440Z,3.70
2017-08-07T17:00:01.865Z,2.30
2017-08-07T17:02:29.280Z,2.27
2017-08-07T17:04:56.704Z,2.63
2017-08-07T17:07:24.142Z,2.20
2017-08-07T17:09:51.592Z,2.97
2017-08-07T17:12:19.051Z,2.97
2017-08-07T17:14:46.509Z,3.03
2017-08-07T17:17:13.936Z,4.00
2017-08-07T17:19:41.465Z,5.50
2017-08-07T17:22:08.920Z,4.67
2017-08-07T17:24:36.345Z,2.40
2017-08-07T17:27:03.790Z,3.20
2017-08-07T17:29:31.212Z,3.33
2017-08-07T17:31:58.740Z,3.00
2017-08-07T17:34:26.161Z,2.80
2017-08-07T17:36:53.573Z,3.77
2017-08-07T17:39:21.046Z,2.67
2017-08-07T17:41:48.451Z,3.27
2017-08-07T17:44:15.876Z,2.93
2017-08-07T17:46:43.326Z,3.50
2017-08-07T17:49:10.748Z,5.70
2017-08-07T17:51:38.937Z,3.57
2017-08-07T17:54:06.377Z,4.27
2017-08-07T17:56:34.601Z,3.73
2017-08-07T17:59:02.029Z,3.07
2017-08-07T18:01:29.458Z,3.40
2017-08-07T18:03:57.647Z,2.83
2017-08-07T18:06:25.076Z,4.53
2017-08-07T18:08:52.591Z,4.27
2017-08-07T18:11:20.033Z,3.40
2017-08-07T18:13:47.436Z,3.30
2017-08-07T18:16:14.849Z,3.17
2017-08-07T18:18:42.290Z,3.80
2017-08-07T18:21:09.750Z,2.70
2017-08-07T18:23:37.180Z,3.00
2017-08-07T18:26:06.181Z,3.30
2017-08-07T18:28:33.610Z,4.17
2017-08-07T18:31:01.037Z,4.00
2017-08-07T18:33:28.464Z,3.97
2017-08-07T18:35:55.906Z,5.33
2017-08-07T18:38:23.333Z,5.07
2017-08-07T18:40:50.762Z,4.17
2017-08-07T18:43:18.189Z,3.93
2017-08-07T18:45:45.606Z,3.77
2017-08-07T18:48:13.817Z,4.60
2017-08-07T18:50:41.228Z,3.60
2017-08-07T18:53:08.644Z,3.70
2017-08-07T18:55:36.072Z,4.70
2017-08-07T18:58:03.517Z,5.20
2017-08-07T19:00:31.712Z,6.57
2017-08-07T19:02:59.133Z,6.07
2017-08-07T19:05:27.364Z,5.93
2017-08-07T19:07:54.790Z,5.43
2017-08-07T19:10:22.216Z,5.50
2017-08-07T19:12:49.633Z,5.20
2017-08-07T19:15:17.064Z,5.10
2017-08-07T19:17:44.492Z,6.37
2017-08-07T19:20:12.690Z,5.03
2017-08-07T19:22:40.182Z,6.50
2017-08-07T19:25:07.608Z,5.50
2017-08-07T19:27:35.032Z,6.80
2017-08-07T19:30:02.470Z,5.57
2017-08-07T19:32:29.921Z,5.77
2017-08-07T19:34:57.358Z,6.00
2017-08-07T19:37:24.816Z,6.50
2017-08-07T19:39:52.275Z,5.43
2017-08-07T19:42:19.705Z,5.30
2017-08-07T19:44:47.125Z,6.07
2017-08-07T19:47:15.313Z,5.80
2017-08-07T19:49:42.736Z,5.93
2017-08-07T19:52:10.383Z,6.13
2017-08-07T19:54:37.826Z,5.37
2017-08-07T19:57:05.278Z,5.70
2017-08-07T19:59:32.704Z,5.70
2017-08-07T20:02:00.143Z,5.60
2017-08-07T20:04:28.324Z,5.70
2017-08-07T20:06:55.758Z,4.40
2017-08-07T20:09:24.015Z,4.93
2017-08-07T20:11:51.423Z,5.17
2017-08-07T20:14:18.853Z,5.00
2017-08-07T20:16:46.300Z,4.87
2017-08-07T20:19:13.717Z,5.10
2017-08-07T20:21:41.142Z,4.80
2017-08-07T20:24:08.577Z,5.30
2017-08-07T20:26:36.774Z,4.47
2017-08-07T20:29:04.205Z,4.70
2017-08-07T20:31:32.400Z,4.50
2017-08-07T20:33:59.839Z,4.50
2017-08-07T20:36:28.028Z,4.27
2017-08-07T20:38:55.465Z,4.70
2017-08-07T20:41:23.674Z,4.57
2017-08-07T20:43:51.105Z,5.00
2017-08-07T20:46:18.540Z,4.23
2017-08-07T20:48:46.744Z,3.60
2017-08-07T20:51:14.164Z,3.90
2017-08-07T20:53:41.596Z,3.93
2017-08-07T20:56:09.051Z,5.40
2017-08-07T20:58:38.001Z,4.00
2017-08-07T21:01:05.430Z,4.17
2017-08-07T21:03:32.840Z,4.23
2017-08-07T21:06:00.272Z,3.67
2017-08-07T21:08:27.706Z,3.90
2017-08-07T21:10:55.117Z,3.60
2017-08-07T21:13:22.561Z,3.93
2017-08-07T21:15:50.033Z,4.07
2017-08-07T21:18:17.461Z,4.27
2017-08-07T21:20:44.904Z,4.27
2017-08-07T21:23:12.341Z,4.20
2017-08-07T21:25:40.556Z,4.50
2017-08-07T21:28:08.053Z,5.00
2017-08-07T21:30:35.574Z,4.10
2017-08-07T21:33:03.049Z,3.90
2017-08-07T21:35:30.494Z,4.17
2017-08-07T21:37:57.933Z,3.87
2017-08-07T21:40:25.376Z,4.00
2017-08-07T21:42:52.809Z,4.10
2017-08-07T21:45:21.027Z,4.17
2017-08-07T21:47:48.443Z,4.37
2017-08-07T21:50:16.637Z,4.10
2017-08-07T21:52:44.049Z,4.03
2017-08-07T21:55:11.476Z,4.43
2017-08-07T21:57:38.908Z,4.20
2017-08-07T22:00:06.418Z,4.50
2017-08-07T22:02:33.842Z,4.20
2017-08-07T22:05:01.273Z,4.17
2017-08-07T22:07:28.694Z,4.20
2017-08-07T22:09:56.895Z,4.17
2017-08-07T22:12:24.322Z,3.97
2017-08-07T22:14:51.765Z,4.00
2017-08-07T22:17:19.198Z,4.57
2017-08-07T22:19:46.619Z,4.13
2017-08-07T22:22:14.037Z,4.50
2017-08-07T22:25:14.577Z,4.33
2017-08-07T22:27:42.029Z,4.20
2017-08-07T22:30:09.460Z,3.60
2017-08-07T22:32:36.893Z,4.43
2017-08-07T22:35:04.312Z,4.03
2017-08-07T22:37:32.503Z,4.40
2017-08-07T22:39:59.942Z,4.30
2017-08-07T22:42:27.336Z,4.20
2017-08-07T22:44:54.777Z,4.30
2017-08-07T22:47:22.201Z,4.40
2017-08-07T22:49:50.394Z,4.30
2017-08-07T22:52:17.812Z,4.37
2017-08-07T22:54:45.264Z,4.40
2017-08-07T22:57:12.696Z,4.10
2017-08-07T22:59:40.112Z,4.20
2017-08-07T23:02:07.553Z,4.57
2017-08-07T23:04:35.733Z,4.70
2017-08-07T23:07:03.929Z,4.10
2017-08-07T23:09:31.359Z,4.83
2017-08-07T23:11:59.617Z,4.73
2017-08-07T23:14:27.067Z,4.70
2017-08-07T23:16:54.515Z,4.97
2017-08-07T23:19:21.968Z,4.53
2017-08-07T23:21:49.385Z,4.70
2017-08-07T23:24:16.925Z,5.13
2017-08-07T23:26:45.108Z,4.80
2017-08-07T23:29:12.548Z,4.83
2017-08-07T23:31:40.764Z,5.00
2017-08-07T23:34:08.188Z,5.20
2017-08-07T23:36:35.609Z,4.90
2017-08-07T23:39:03.042Z,5.27
2017-08-07T23:41:30.474Z,5.87
2017-08-07T23:43:57.896Z,5.50
2017-08-07T23:46:26.119Z,5.27
2017-08-07T23:48:53.550Z,5.80
2017-08-07T23:51:20.968Z,5.50
2017-08-07T23:53:48.390Z,5.30
2017-08-07T23:56:15.823Z,5.40
2017-08-07T23:58:43.245Z,5.50
